createdAt,value
2017-08-21T00:00:29.978Z,0
2017-08-21T00:01:30.346Z,0
2017-08-21T00:02:30.409Z,0
2017-08-21T00:03:30.445Z,0
2017-08-21T00:04:30.515Z,0
2017-08-21T00:05:30.561Z,0
2017-08-21T00:06:30.619Z,0
2017-08-21T00:07:30.669Z,0
2017-08-21T00:08:30.732Z,0
2017-08-21T00:09:30.788Z,0
2017-08-21T00:10:30.840Z,0
2017-08-21T00:11:30.900Z,0
2017-08-21T00:12:30.954Z,0
2017-08-21T00:13:31.008Z,0
2017-08-21T00:14:30.753Z,0
2017-08-21T00:15:31.119Z,0
2017-08-21T00:16:30.876Z,0
2017-08-21T00:17:30.914Z,0
2017-08-21T00:18:31.288Z,0
2017-08-21T00:19:31.336Z,0
2017-08-21T00:20:31.389Z,0
2017-08-21T00:21:31.142Z,0
2017-08-21T00:22:31.502Z,0
2017-08-21T00:23:31.253Z,0
2017-08-21T00:24:31.612Z,0
2017-08-21T00:25:31.668Z,0
2017-08-21T00:26:31.731Z,0
2017-08-21T00:27:31.779Z,0
2017-08-21T00:28:31.831Z,0
2017-08-21T00:29:31.882Z,0
2017-08-21T00:30:31.946Z,0
2017-08-21T00:31:32.000Z,0
2017-08-21T00:32:32.060Z,0
2017-08-21T00:33:32.115Z,0
2017-08-21T00:34:32.166Z,0
2017-08-21T00:35:32.209Z,0
2017-08-21T00:36:32.281Z,0
2017-08-21T00:37:32.324Z,0
2017-08-21T00:38:32.404Z,0
2017-08-21T00:39:32.434Z,0
2017-08-21T00:40:32.493Z,0
2017-08-21T00:41:32.550Z,0
2017-08-21T00:42:32.603Z,0
2017-08-21T00:43:32.650Z,0
2017-08-21T00:44:32.723Z,0
2017-08-21T00:45:32.781Z,0
2017-08-21T00:46:32.827Z,0
2017-08-21T00:47:32.877Z,0
2017-08-21T00:48:32.923Z,0
2017-08-21T00:49:32.989Z,0
2017-08-21T00:50:33.041Z,0
2017-08-21T00:51:33.105Z,0
2017-08-21T00:52:33.151Z,0
2017-08-21T00:53:32.913Z,0
2017-08-21T00:54:33.270Z,0
2017-08-21T00:55:33.319Z,0
2017-08-21T00:56:33.380Z,0
2017-08-21T00:57:33.434Z,0
2017-08-21T00:58:33.488Z,0
2017-08-21T00:59:33.536Z,0
2017-08-21T01:00:33.604Z,0
2017-08-21T01:01:33.650Z,0
2017-08-21T01:02:33.708Z,0
2017-08-21T01:03:33.771Z,0
2017-08-21T01:04:33.810Z,0
2017-08-21T01:05:33.873Z,0
2017-08-21T01:06:33.929Z,0
2017-08-21T01:07:33.976Z,0
2017-08-21T01:08:33.725Z,0
2017-08-21T01:09:33.792Z,0
2017-08-21T01:10:34.150Z,0
2017-08-21T01:11:33.893Z,0
2017-08-21T01:12:34.257Z,0
2017-08-21T01:13:34.334Z,0
2017-08-21T01:14:34.368Z,0
2017-08-21T01:15:34.111Z,0
2017-08-21T01:16:34.480Z,0
2017-08-21T01:17:34.530Z,0
2017-08-21T01:18:34.589Z,0
2017-08-21T01:19:34.652Z,0
2017-08-21T01:20:34.701Z,0
2017-08-21T01:21:34.461Z,0
2017-08-21T01:22:34.510Z,0
2017-08-21T01:23:34.872Z,0
2017-08-21T01:24:34.913Z,0
2017-08-21T01:25:34.970Z,0
2017-08-21T01:26:35.030Z,0
2017-08-21T01:27:35.081Z,0
2017-08-21T01:28:35.147Z,0
2017-08-21T01:29:35.199Z,0
2017-08-21T01:30:35.244Z,0
2017-08-21T01:31:35.309Z,0
2017-08-21T01:32:35.369Z,0
2017-08-21T01:33:35.416Z,0
2017-08-21T01:34:35.470Z,0
2017-08-21T01:35:35.515Z,0
2017-08-21T01:36:35.278Z,0
2017-08-21T01:37:35.335Z,0
2017-08-21T01:38:35.692Z,0
2017-08-21T01:39:35.749Z,0
2017-08-21T01:40:35.797Z,0
2017-08-21T01:41:35.557Z,0
2017-08-21T01:42:35.297Z,0
2017-08-21T01:43:35.680Z,0
2017-08-21T01:44:36.019Z,0
2017-08-21T01:45:36.078Z,0
2017-08-21T01:46:36.129Z,0
2017-08-21T01:47:36.189Z,0
2017-08-21T01:48:35.639Z,0
2017-08-21T01:49:36.291Z,0
2017-08-21T01:50:36.345Z,0
2017-08-21T01:51:36.403Z,0
2017-08-21T01:52:36.451Z,0
2017-08-21T01:53:36.508Z,0
2017-08-21T01:54:36.564Z,0
2017-08-21T01:55:36.622Z,0
2017-08-21T01:56:36.681Z,0
2017-08-21T01:57:36.725Z,0
2017-08-21T01:58:36.790Z,0
2017-08-21T01:59:36.850Z,0
2017-08-21T02:00:36.597Z,0
2017-08-21T02:01:36.953Z,0
2017-08-21T02:02:36.999Z,0
2017-08-21T02:03:36.755Z,0
2017-08-21T02:04:36.811Z,0
2017-08-21T02:05:36.876Z,0
2017-08-21T02:06:36.919Z,0
2017-08-21T02:07:36.973Z,0
2017-08-21T02:08:37.329Z,0
2017-08-21T02:09:37.090Z,0
2017-08-21T02:10:37.454Z,0
2017-08-21T02:11:37.508Z,0
2017-08-21T02:12:37.558Z,0
2017-08-21T02:13:37.613Z,0
2017-08-21T02:14:37.374Z,0
2017-08-21T02:15:37.712Z,0
2017-08-21T02:16:37.485Z,0
2017-08-21T02:17:37.841Z,0
2017-08-21T02:18:37.887Z,0
2017-08-21T02:19:37.952Z,0
2017-08-21T02:20:37.688Z,0
2017-08-21T02:21:37.444Z,0
2017-08-21T02:22:37.812Z,0
2017-08-21T02:23:38.170Z,0
2017-08-21T02:24:37.923Z,0
2017-08-21T02:25:38.274Z,0
2017-08-21T02:26:38.026Z,0
2017-08-21T02:27:38.076Z,0
2017-08-21T02:28:38.133Z,0
2017-08-21T02:29:38.495Z,0
2017-08-21T02:30:38.550Z,0
2017-08-21T02:31:38.617Z,0
2017-08-21T02:32:38.658Z,0
2017-08-21T02:33:38.711Z,0
2017-08-21T02:34:38.468Z,0
2017-08-21T02:35:38.832Z,0
2017-08-21T02:36:38.886Z,0
2017-08-21T02:37:38.626Z,0
2017-08-21T02:38:38.992Z,0
2017-08-21T02:39:39.050Z,0
2017-08-21T02:40:39.111Z,0
2017-08-21T02:41:39.164Z,0
2017-08-21T02:42:39.222Z,0
2017-08-21T02:43:39.261Z,0
2017-08-21T02:44:39.320Z,0
2017-08-21T02:45:39.373Z,0
2017-08-21T02:46:39.459Z,0
2017-08-21T02:47:39.494Z,0
2017-08-21T02:48:39.549Z,0
2017-08-21T02:49:39.293Z,0
2017-08-21T02:50:39.653Z,0
2017-08-21T02:51:39.410Z,0
2017-08-21T02:52:39.768Z,0
2017-08-21T02:53:39.515Z,0
2017-08-21T02:54:39.868Z,0
2017-08-21T02:55:39.922Z,0
2017-08-21T02:56:39.977Z,0
2017-08-21T02:57:40.050Z,0
2017-08-21T02:58:39.788Z,0
2017-08-21T02:59:39.848Z,0
2017-08-21T03:00:40.197Z,0
2017-08-21T03:01:39.952Z,0
2017-08-21T03:02:40.012Z,0
2017-08-21T03:03:40.384Z,0
2017-08-21T03:04:40.427Z,0
2017-08-21T03:05:40.173Z,0
2017-08-21T03:06:40.224Z,0
2017-08-21T03:07:40.280Z,0
2017-08-21T03:08:40.330Z,0
2017-08-21T03:09:40.084Z,0
2017-08-21T03:10:40.746Z,0
2017-08-21T03:11:40.814Z,0
2017-08-21T03:12:40.860Z,0
2017-08-21T03:13:40.921Z,0
2017-08-21T03:14:40.969Z,0
2017-08-21T03:15:41.032Z,0
2017-08-21T03:16:41.075Z,0
2017-08-21T03:17:41.133Z,0
2017-08-21T03:18:40.590Z,0
2017-08-21T03:19:40.635Z,0
2017-08-21T03:20:41.001Z,0
2017-08-21T03:21:41.352Z,0
2017-08-21T03:22:41.408Z,0
2017-08-21T03:23:41.475Z,0
2017-08-21T03:24:41.515Z,0
2017-08-21T03:25:41.577Z,0
2017-08-21T03:26:41.627Z,0
2017-08-21T03:27:41.693Z,0
2017-08-21T03:28:41.732Z,0
2017-08-21T03:29:41.793Z,0
2017-08-21T03:30:41.856Z,0
2017-08-21T03:31:41.909Z,0
2017-08-21T03:32:41.953Z,0
2017-08-21T03:33:42.001Z,0
2017-08-21T03:34:42.056Z,0
2017-08-21T03:35:41.833Z,0
2017-08-21T03:36:42.167Z,0
2017-08-21T03:37:42.235Z,0
2017-08-21T03:38:42.291Z,0
2017-08-21T03:39:42.329Z,0
2017-08-21T03:40:42.399Z,0
2017-08-21T03:41:42.444Z,0
2017-08-21T03:42:42.509Z,0
2017-08-21T03:43:42.566Z,0
2017-08-21T03:44:42.626Z,0
2017-08-21T03:45:42.659Z,0
2017-08-21T03:46:42.725Z,0
2017-08-21T03:47:42.794Z,0
2017-08-21T03:48:42.845Z,0
2017-08-21T03:49:42.880Z,0
2017-08-21T03:50:42.635Z,0
2017-08-21T03:51:43.003Z,0
2017-08-21T03:52:43.044Z,0
2017-08-21T03:53:43.103Z,0
2017-08-21T03:54:43.160Z,0
2017-08-21T03:55:43.222Z,0
2017-08-21T03:56:43.279Z,0
2017-08-21T03:57:43.337Z,0
2017-08-21T03:58:43.082Z,0
2017-08-21T03:59:43.435Z,0
2017-08-21T04:00:43.491Z,0
2017-08-21T04:01:43.248Z,0
2017-08-21T04:02:43.302Z,0
2017-08-21T04:03:43.348Z,0
2017-08-21T04:04:43.418Z,0
2017-08-21T04:05:43.768Z,0
2017-08-21T04:06:43.519Z,0
2017-08-21T04:07:43.885Z,0
2017-08-21T04:08:43.933Z,0
2017-08-21T04:09:43.992Z,0
2017-08-21T04:10:44.043Z,0
2017-08-21T04:11:44.105Z,0
2017-08-21T04:12:44.160Z,0
2017-08-21T04:13:44.210Z,0
2017-08-21T04:14:44.256Z,4
2017-08-21T04:15:44.319Z,4
2017-08-21T04:16:44.376Z,4
2017-08-21T04:17:44.428Z,4
2017-08-21T04:18:44.479Z,4
2017-08-21T04:19:44.535Z,8
2017-08-21T04:20:44.583Z,4
2017-08-21T04:21:44.344Z,4
2017-08-21T04:22:44.700Z,4
2017-08-21T04:23:44.452Z,8
2017-08-21T04:24:44.514Z,8
2017-08-21T04:25:44.879Z,8
2017-08-21T04:26:44.926Z,8
2017-08-21T04:27:44.977Z,8
2017-08-21T04:28:45.025Z,12
2017-08-21T04:29:45.090Z,12
2017-08-21T04:30:45.136Z,8
2017-08-21T04:31:45.194Z,12
2017-08-21T04:32:45.254Z,12
2017-08-21T04:33:45.301Z,12
2017-08-21T04:34:45.374Z,16
2017-08-21T04:35:45.417Z,16
2017-08-21T04:36:45.174Z,16
2017-08-21T04:37:45.526Z,16
2017-08-21T04:38:45.587Z,20
2017-08-21T04:39:45.637Z,20
2017-08-21T04:40:45.699Z,20
2017-08-21T04:41:45.746Z,24
2017-08-21T04:42:45.802Z,24
2017-08-21T04:43:45.863Z,24
2017-08-21T04:44:45.911Z,28
2017-08-21T04:45:45.664Z,28
2017-08-21T04:46:45.725Z,32
2017-08-21T04:47:46.068Z,28
2017-08-21T04:48:45.827Z,32
2017-08-21T04:49:46.189Z,36
2017-08-21T04:50:46.252Z,36
2017-08-21T04:51:45.712Z,36
2017-08-21T04:52:46.351Z,40
2017-08-21T04:53:46.410Z,40
2017-08-21T04:54:46.457Z,44
2017-08-21T04:55:46.216Z,48
2017-08-21T04:56:46.561Z,52
2017-08-21T04:57:46.322Z,56
2017-08-21T04:58:46.389Z,60
2017-08-21T04:59:46.743Z,64
2017-08-21T05:00:46.805Z,68
2017-08-21T05:01:46.846Z,72
2017-08-21T05:02:46.906Z,72
2017-08-21T05:03:46.950Z,76
2017-08-21T05:04:47.007Z,72
2017-08-21T05:05:47.062Z,64
2017-08-21T05:06:47.129Z,60
2017-08-21T05:07:47.175Z,60
2017-08-21T05:08:47.240Z,64
2017-08-21T05:09:47.290Z,80
2017-08-21T05:10:47.031Z,92
2017-08-21T05:11:47.401Z,96
2017-08-21T05:12:47.452Z,104
2017-08-21T05:13:47.219Z,108
2017-08-21T05:14:47.566Z,112
2017-08-21T05:15:47.622Z,120
2017-08-21T05:16:47.666Z,124
2017-08-21T05:17:47.427Z,128
2017-08-21T05:18:47.787Z,132
2017-08-21T05:19:47.539Z,108
2017-08-21T05:20:47.595Z,116
2017-08-21T05:21:47.653Z,148
2017-08-21T05:22:47.997Z,136
2017-08-21T05:23:48.069Z,116
2017-08-21T05:24:48.121Z,120
2017-08-21T05:25:48.172Z,96
2017-08-21T05:26:48.229Z,104
2017-08-21T05:27:47.977Z,100
2017-08-21T05:28:48.339Z,108
2017-08-21T05:29:48.400Z,108
2017-08-21T05:30:48.448Z,108
2017-08-21T05:31:48.199Z,100
2017-08-21T05:32:48.256Z,96
2017-08-21T05:33:48.311Z,92
2017-08-21T05:34:48.377Z,84
2017-08-21T05:35:48.424Z,80
2017-08-21T05:36:48.772Z,80
2017-08-21T05:37:48.830Z,76
2017-08-21T05:38:48.886Z,80
2017-08-21T05:39:48.945Z,84
2017-08-21T05:40:48.692Z,84
2017-08-21T05:41:48.747Z,80
2017-08-21T05:42:49.103Z,84
2017-08-21T05:43:49.167Z,84
2017-08-21T05:44:48.911Z,92
2017-08-21T05:45:49.278Z,96
2017-08-21T05:46:49.330Z,100
2017-08-21T05:47:49.387Z,96
2017-08-21T05:48:49.446Z,100
2017-08-21T05:49:49.702Z,104
2017-08-21T05:50:49.553Z,116
2017-08-21T05:51:49.600Z,116
2017-08-21T05:52:49.658Z,120
2017-08-21T05:53:49.411Z,132
2017-08-21T05:54:49.977Z,208
2017-08-21T05:55:49.520Z,212
2017-08-21T05:56:49.881Z,236
2017-08-21T05:57:49.941Z,228
2017-08-21T05:58:49.693Z,212
2017-08-21T05:59:50.054Z,232
2017-08-21T06:00:50.104Z,220
2017-08-21T06:01:49.856Z,232
2017-08-21T06:02:49.907Z,240
2017-08-21T06:03:49.656Z,244
2017-08-21T06:04:50.015Z,248
2017-08-21T06:05:50.066Z,252
2017-08-21T06:06:50.130Z,256
2017-08-21T06:07:50.488Z,244
2017-08-21T06:08:50.569Z,264
2017-08-21T06:09:50.599Z,284
2017-08-21T06:10:50.645Z,312
2017-08-21T06:11:50.407Z,308
2017-08-21T06:12:50.464Z,256
2017-08-21T06:13:50.820Z,260
2017-08-21T06:14:50.569Z,252
2017-08-21T06:15:50.317Z,252
2017-08-21T06:16:50.678Z,256
2017-08-21T06:17:50.734Z,256
2017-08-21T06:18:50.789Z,268
2017-08-21T06:19:51.150Z,268
2017-08-21T06:20:51.207Z,268
2017-08-21T06:21:51.260Z,272
2017-08-21T06:22:51.307Z,296
2017-08-21T06:23:51.580Z,304
2017-08-21T06:24:51.415Z,280
2017-08-21T06:25:51.480Z,272
2017-08-21T06:26:51.233Z,276
2017-08-21T06:27:51.509Z,324
2017-08-21T06:28:51.654Z,328
2017-08-21T06:29:51.408Z,320
2017-08-21T06:30:51.754Z,324
2017-08-21T06:31:51.527Z,340
2017-08-21T06:32:51.877Z,336
2017-08-21T06:33:51.910Z,324
2017-08-21T06:34:51.973Z,320
2017-08-21T06:35:52.020Z,308
2017-08-21T06:36:52.074Z,296
2017-08-21T06:37:51.527Z,296
2017-08-21T06:38:51.585Z,308
2017-08-21T06:39:52.255Z,312
2017-08-21T06:40:52.006Z,300
2017-08-21T06:41:52.350Z,288
2017-08-21T06:42:52.108Z,288
2017-08-21T06:43:52.467Z,340
2017-08-21T06:44:52.519Z,268
2017-08-21T06:45:52.579Z,272
2017-08-21T06:46:52.635Z,264
2017-08-21T06:47:52.702Z,268
2017-08-21T06:48:52.744Z,276
2017-08-21T06:49:52.802Z,268
2017-08-21T06:50:52.848Z,252
2017-08-21T06:51:52.603Z,232
2017-08-21T06:52:52.953Z,224
2017-08-21T06:53:53.218Z,228
2017-08-21T06:54:53.065Z,240
2017-08-21T06:55:53.130Z,260
2017-08-21T06:56:53.187Z,268
2017-08-21T06:57:53.232Z,276
2017-08-21T06:58:53.201Z,288
2017-08-21T06:59:53.337Z,292
2017-08-21T07:00:53.404Z,296
2017-08-21T07:01:53.462Z,292
2017-08-21T07:02:53.512Z,304
2017-08-21T07:03:53.778Z,308
2017-08-21T07:04:53.633Z,296
2017-08-21T07:05:53.690Z,296
2017-08-21T07:06:53.420Z,308
2017-08-21T07:07:53.789Z,324
2017-08-21T07:08:53.848Z,344
2017-08-21T07:09:53.905Z,432
2017-08-21T07:10:53.954Z,408
2017-08-21T07:11:54.018Z,396
2017-08-21T07:12:54.068Z,432
2017-08-21T07:13:54.133Z,568
2017-08-21T07:14:53.574Z,588
2017-08-21T07:15:53.628Z,604
2017-08-21T07:16:53.685Z,596
2017-08-21T07:17:54.335Z,492
2017-08-21T07:18:54.401Z,476
2017-08-21T07:19:54.445Z,476
2017-08-21T07:20:54.503Z,560
2017-08-21T07:21:54.551Z,456
2017-08-21T07:22:54.614Z,444
2017-08-21T07:23:54.666Z,420
2017-08-21T07:24:54.730Z,412
2017-08-21T07:25:54.784Z,392
2017-08-21T07:26:54.533Z,412
2017-08-21T07:27:54.905Z,436
2017-08-21T07:28:54.955Z,420
2017-08-21T07:29:55.010Z,420
2017-08-21T07:30:55.060Z,428
2017-08-21T07:31:55.117Z,428
2017-08-21T07:32:55.169Z,432
2017-08-21T07:33:55.219Z,448
2017-08-21T07:34:55.280Z,468
2017-08-21T07:35:55.342Z,460
2017-08-21T07:36:55.402Z,460
2017-08-21T07:37:55.439Z,460
2017-08-21T07:38:55.740Z,452
2017-08-21T07:39:55.553Z,484
2017-08-21T07:40:55.629Z,496
2017-08-21T07:41:55.686Z,484
2017-08-21T07:42:55.427Z,468
2017-08-21T07:43:55.769Z,460
2017-08-21T07:44:55.842Z,468
2017-08-21T07:45:55.880Z,496
2017-08-21T07:46:55.947Z,608
2017-08-21T07:47:55.694Z,644
2017-08-21T07:48:56.064Z,564
2017-08-21T07:49:56.105Z,556
2017-08-21T07:50:55.563Z,564
2017-08-21T07:51:56.228Z,592
2017-08-21T07:52:56.269Z,612
2017-08-21T07:53:56.320Z,700
2017-08-21T07:54:56.393Z,640
2017-08-21T07:55:56.452Z,612
2017-08-21T07:56:56.490Z,632
2017-08-21T07:57:56.561Z,624
2017-08-21T07:58:56.602Z,568
2017-08-21T07:59:56.660Z,520
2017-08-21T08:00:56.733Z,492
2017-08-21T08:01:56.781Z,484
2017-08-21T08:02:56.818Z,512
2017-08-21T08:03:56.581Z,540
2017-08-21T08:04:57.151Z,568
2017-08-21T08:05:56.691Z,560
2017-08-21T08:06:56.740Z,552
2017-08-21T08:07:57.105Z,552
2017-08-21T08:08:57.059Z,548
2017-08-21T08:09:57.410Z,516
2017-08-21T08:10:57.263Z,536
2017-08-21T08:11:57.322Z,504
2017-08-21T08:12:57.076Z,584
2017-08-21T08:13:57.128Z,532
2017-08-21T08:14:57.189Z,480
2017-08-21T08:15:57.557Z,592
2017-08-21T08:16:57.293Z,584
2017-08-21T08:17:57.656Z,788
2017-08-21T08:18:57.111Z,812
2017-08-21T08:19:57.461Z,832
2017-08-21T08:20:57.516Z,808
2017-08-21T08:21:57.872Z,792
2017-08-21T08:22:57.320Z,780
2017-08-21T08:23:57.988Z,760
2017-08-21T08:24:58.046Z,792
2017-08-21T08:25:58.095Z,720
2017-08-21T08:26:57.857Z,832
2017-08-21T08:27:57.897Z,772
2017-08-21T08:28:57.961Z,604
2017-08-21T08:29:58.322Z,568
2017-08-21T08:30:58.071Z,556
2017-08-21T08:31:58.427Z,576
2017-08-21T08:32:58.477Z,748
2017-08-21T08:33:58.539Z,640
2017-08-21T08:34:58.604Z,620
2017-08-21T08:35:58.653Z,612
2017-08-21T08:36:58.402Z,596
2017-08-21T08:37:58.777Z,644
2017-08-21T08:38:58.514Z,776
2017-08-21T08:39:59.089Z,804
2017-08-21T08:40:58.925Z,684
2017-08-21T08:41:58.978Z,688
2017-08-21T08:42:59.036Z,916
2017-08-21T08:43:59.095Z,928
2017-08-21T08:44:59.155Z,904
2017-08-21T08:46:12.835Z,832
2017-08-21T08:46:59.253Z,836
2017-08-21T08:47:59.310Z,936
2017-08-21T08:48:59.369Z,792
2017-08-21T08:49:59.437Z,836
2017-08-21T08:50:59.477Z,852
2017-08-21T08:51:59.535Z,796
2017-08-21T08:52:59.614Z,876
2017-08-21T08:53:59.647Z,944
2017-08-21T08:54:59.697Z,1072
2017-08-21T08:55:59.460Z,1100
2017-08-21T08:56:59.507Z,912
2017-08-21T08:57:59.872Z,876
2017-08-21T08:58:59.632Z,824
2017-08-21T08:59:59.984Z,836
2017-08-21T09:01:00.046Z,912
2017-08-21T09:02:00.089Z,836
2017-08-21T09:03:00.151Z,840
2017-08-21T09:04:00.200Z,772
2017-08-21T09:05:00.263Z,792
2017-08-21T09:06:00.014Z,864
2017-08-21T09:07:00.366Z,908
2017-08-21T09:08:00.422Z,936
2017-08-21T09:09:00.486Z,912
2017-08-21T09:10:00.547Z,992
2017-08-21T09:11:00.610Z,904
2017-08-21T09:12:00.851Z,868
2017-08-21T09:13:00.406Z,904
2017-08-21T09:14:00.449Z,856
2017-08-21T09:15:00.516Z,792
2017-08-21T09:16:00.872Z,664
2017-08-21T09:17:01.146Z,628
2017-08-21T09:18:00.971Z,624
2017-08-21T09:19:00.428Z,836
2017-08-21T09:20:01.103Z,728
2017-08-21T09:21:01.136Z,916
2017-08-21T09:22:01.195Z,1120
2017-08-21T09:23:01.247Z,848
2017-08-21T09:24:01.011Z,860
2017-08-21T09:25:01.368Z,1136
2017-08-21T09:26:01.424Z,912
2017-08-21T09:27:01.480Z,952
2017-08-21T09:28:01.249Z,860
2017-08-21T09:29:01.290Z,876
2017-08-21T09:30:01.346Z,1052
2017-08-21T09:31:01.393Z,976
2017-08-21T09:32:01.753Z,1064
2017-08-21T09:33:01.809Z,1020
2017-08-21T09:34:01.877Z,940
2017-08-21T09:35:01.928Z,876
2017-08-21T09:36:01.989Z,944
2017-08-21T09:37:01.728Z,884
2017-08-21T09:38:02.094Z,916
2017-08-21T09:39:01.839Z,940
2017-08-21T09:40:02.198Z,844
2017-08-21T09:41:02.252Z,852
2017-08-21T09:42:02.314Z,968
2017-08-21T09:43:02.369Z,956
2017-08-21T09:44:02.433Z,1112
2017-08-21T09:45:02.475Z,1116
2017-08-21T09:46:02.533Z,1040
2017-08-21T09:47:02.295Z,936
2017-08-21T09:48:02.348Z,832
2017-08-21T09:49:02.393Z,852
2017-08-21T09:50:02.457Z,964
2017-08-21T09:51:02.818Z,1212
2017-08-21T09:52:02.593Z,1068
2017-08-21T09:53:02.616Z,940
2017-08-21T09:54:02.978Z,884
2017-08-21T09:55:03.031Z,912
2017-08-21T09:56:03.090Z,1024
2017-08-21T09:57:02.837Z,1052
2017-08-21T09:58:02.900Z,1148
2017-08-21T09:59:03.261Z,1440
2017-08-21T10:00:03.015Z,1228
2017-08-21T10:01:03.371Z,1424
2017-08-21T10:02:03.423Z,1268
2017-08-21T10:03:03.481Z,872
2017-08-21T10:04:03.563Z,800
2017-08-21T10:05:03.587Z,776
2017-08-21T10:06:03.647Z,776
2017-08-21T10:07:03.701Z,748
2017-08-21T10:08:03.762Z,732
2017-08-21T10:09:03.821Z,744
2017-08-21T10:10:03.881Z,804
2017-08-21T10:11:03.919Z,888
2017-08-21T10:12:03.680Z,764
2017-08-21T10:13:04.043Z,716
2017-08-21T10:14:04.082Z,664
2017-08-21T10:15:04.156Z,640
2017-08-21T10:16:04.217Z,680
2017-08-21T10:17:04.263Z,760
2017-08-21T10:18:04.314Z,820
2017-08-21T10:19:04.072Z,980
2017-08-21T10:20:04.119Z,988
2017-08-21T10:21:04.180Z,900
2017-08-21T10:22:04.538Z,988
2017-08-21T10:23:04.599Z,980
2017-08-21T10:24:04.646Z,916
2017-08-21T10:25:04.711Z,952
2017-08-21T10:26:04.756Z,944
2017-08-21T10:27:04.826Z,884
2017-08-21T10:28:04.573Z,940
2017-08-21T10:29:04.632Z,1024
2017-08-21T10:30:04.981Z,1000
2017-08-21T10:31:04.741Z,904
2017-08-21T10:32:05.097Z,864
2017-08-21T10:33:04.535Z,848
2017-08-21T10:34:05.209Z,908
2017-08-21T10:35:04.949Z,988
2017-08-21T10:36:05.311Z,964
2017-08-21T10:37:05.373Z,964
2017-08-21T10:38:05.452Z,956
2017-08-21T10:39:05.484Z,844
2017-08-21T10:40:05.539Z,776
2017-08-21T10:41:05.592Z,720
2017-08-21T10:42:05.644Z,648
2017-08-21T10:43:05.700Z,636
2017-08-21T10:44:05.758Z,616
2017-08-21T10:45:05.806Z,600
2017-08-21T10:46:05.859Z,560
2017-08-21T10:47:05.925Z,552
2017-08-21T10:48:05.681Z,568
2017-08-21T10:49:06.042Z,576
2017-08-21T10:50:06.098Z,588
2017-08-21T10:51:05.849Z,584
2017-08-21T10:52:06.218Z,584
2017-08-21T10:53:06.265Z,580
2017-08-21T10:54:06.320Z,584
2017-08-21T10:55:06.366Z,584
2017-08-21T10:56:06.423Z,576
2017-08-21T10:57:06.181Z,576
2017-08-21T10:58:06.538Z,576
2017-08-21T10:59:06.604Z,564
2017-08-21T11:00:06.653Z,568
2017-08-21T11:01:06.713Z,564
2017-08-21T11:02:06.458Z,552
2017-08-21T11:03:06.826Z,548
2017-08-21T11:04:06.873Z,564
2017-08-21T11:05:06.938Z,600
2017-08-21T11:06:06.374Z,632
2017-08-21T11:07:07.041Z,652
2017-08-21T11:08:07.092Z,688
2017-08-21T11:09:06.841Z,716
2017-08-21T11:10:07.196Z,732
2017-08-21T11:11:06.956Z,756
2017-08-21T11:12:07.319Z,824
2017-08-21T11:13:07.370Z,808
2017-08-21T11:14:07.428Z,828
2017-08-21T11:15:07.186Z,912
2017-08-21T11:16:07.232Z,852
2017-08-21T11:17:07.587Z,804
2017-08-21T11:18:07.341Z,796
2017-08-21T11:19:07.699Z,828
2017-08-21T11:20:07.455Z,832
2017-08-21T11:21:07.818Z,844
2017-08-21T11:22:07.566Z,956
2017-08-21T11:23:07.940Z,1036
2017-08-21T11:24:07.993Z,1072
2017-08-21T11:25:08.039Z,1092
2017-08-21T11:26:08.097Z,1356
2017-08-21T11:27:07.839Z,1428
2017-08-21T11:28:07.907Z,1456
2017-08-21T11:29:08.261Z,1412
2017-08-21T11:30:08.318Z,1440
2017-08-21T11:31:08.370Z,1336
2017-08-21T11:32:08.129Z,1208
2017-08-21T11:33:08.494Z,1264
2017-08-21T11:34:08.536Z,1212
2017-08-21T11:35:08.606Z,1240
2017-08-21T11:36:08.354Z,1240
2017-08-21T11:37:08.714Z,1352
2017-08-21T11:38:08.159Z,1424
2017-08-21T11:39:08.830Z,1380
2017-08-21T11:40:08.877Z,1380
2017-08-21T11:41:08.933Z,1408
2017-08-21T11:42:08.694Z,1408
2017-08-21T11:43:08.739Z,1564
2017-08-21T11:44:08.806Z,1612
2017-08-21T11:45:09.174Z,1676
2017-08-21T11:46:09.208Z,1560
2017-08-21T11:47:09.268Z,1720
2017-08-21T11:48:09.324Z,1556
2017-08-21T11:49:09.386Z,1744
2017-08-21T11:50:09.426Z,1852
2017-08-21T11:51:09.502Z,1564
2017-08-21T11:52:09.548Z,1744
2017-08-21T11:53:09.604Z,1756
2017-08-21T11:54:09.688Z,1480
2017-08-21T11:55:09.723Z,1620
2017-08-21T11:56:09.770Z,1388
2017-08-21T11:57:09.826Z,1448
2017-08-21T11:58:09.578Z,1048
2017-08-21T11:59:09.941Z,1228
2017-08-21T12:00:10.001Z,1388
2017-08-21T12:01:10.043Z,1620
2017-08-21T12:02:10.101Z,1360
2017-08-21T12:03:09.858Z,1204
2017-08-21T12:04:10.220Z,1492
2017-08-21T12:05:10.271Z,1560
2017-08-21T12:06:10.325Z,1584
2017-08-21T12:07:10.082Z,1548
2017-08-21T12:08:10.443Z,1512
2017-08-21T12:09:10.500Z,1512
2017-08-21T12:10:10.554Z,1596
2017-08-21T12:11:10.610Z,1692
2017-08-21T12:12:10.668Z,1772
2017-08-21T12:13:10.723Z,1504
2017-08-21T12:14:10.779Z,1592
2017-08-21T12:15:10.824Z,1580
2017-08-21T12:16:10.886Z,1564
2017-08-21T12:17:10.967Z,1548
2017-08-21T12:18:11.009Z,1448
2017-08-21T12:19:11.051Z,1412
2017-08-21T12:20:11.123Z,1504
2017-08-21T12:21:11.173Z,1668
2017-08-21T12:22:11.221Z,1596
2017-08-21T12:23:11.278Z,1536
2017-08-21T12:24:11.033Z,1440
2017-08-21T12:25:11.389Z,1264
2017-08-21T12:26:11.452Z,1696
2017-08-21T12:27:11.496Z,1668
2017-08-21T12:28:11.566Z,1672
2017-08-21T12:29:11.627Z,1400
2017-08-21T12:30:11.696Z,1740
2017-08-21T12:31:11.730Z,1396
2017-08-21T12:32:11.785Z,1660
2017-08-21T12:33:11.838Z,1720
2017-08-21T12:34:11.588Z,1524
2017-08-21T12:35:11.956Z,1464
2017-08-21T12:36:12.003Z,1500
2017-08-21T12:37:12.052Z,1592
2017-08-21T12:38:12.112Z,1560
2017-08-21T12:39:12.187Z,1456
2017-08-21T12:40:12.224Z,1280
2017-08-21T12:41:12.298Z,588
2017-08-21T12:42:12.350Z,596
2017-08-21T12:43:12.397Z,992
2017-08-21T12:44:12.457Z,1196
2017-08-21T12:45:11.901Z,1308
2017-08-21T12:46:12.571Z,1284
2017-08-21T12:47:12.622Z,1236
2017-08-21T12:48:12.671Z,1472
2017-08-21T12:49:12.421Z,1532
2017-08-21T12:50:12.487Z,1224
2017-08-21T12:51:12.845Z,708
2017-08-21T12:52:12.911Z,752
2017-08-21T12:53:12.967Z,1220
2017-08-21T12:54:13.018Z,1280
2017-08-21T12:55:13.070Z,1344
2017-08-21T12:56:13.135Z,1180
2017-08-21T12:57:13.195Z,1272
2017-08-21T12:58:12.628Z,1096
2017-08-21T12:59:13.287Z,1352
2017-08-21T13:00:13.353Z,1244
2017-08-21T13:01:13.107Z,1448
2017-08-21T13:02:13.454Z,1248
2017-08-21T13:03:13.528Z,1436
2017-08-21T13:04:13.573Z,1452
2017-08-21T13:05:13.630Z,1532
2017-08-21T13:06:13.689Z,1496
2017-08-21T13:07:13.740Z,1428
2017-08-21T13:08:13.797Z,1128
2017-08-21T13:09:13.856Z,836
2017-08-21T13:10:13.914Z,764
2017-08-21T13:11:13.964Z,728
2017-08-21T13:12:14.025Z,504
2017-08-21T13:13:14.083Z,552
2017-08-21T13:14:13.827Z,1420
2017-08-21T13:15:14.200Z,1300
2017-08-21T13:16:14.243Z,1284
2017-08-21T13:17:14.302Z,1304
2017-08-21T13:18:14.362Z,1196
2017-08-21T13:19:14.415Z,1416
2017-08-21T13:20:14.473Z,1224
2017-08-21T13:21:14.517Z,1404
2017-08-21T13:22:14.584Z,1064
2017-08-21T13:23:14.644Z,1192
2017-08-21T13:24:14.394Z,1076
2017-08-21T13:25:14.752Z,1180
2017-08-21T13:26:14.812Z,1176
2017-08-21T13:27:14.564Z,1168
2017-08-21T13:28:14.617Z,1156
2017-08-21T13:29:14.976Z,1108
2017-08-21T13:30:15.037Z,1128
2017-08-21T13:31:14.775Z,1104
2017-08-21T13:32:14.834Z,1088
2017-08-21T13:33:15.193Z,1076
2017-08-21T13:34:14.946Z,532
2017-08-21T13:35:15.310Z,632
2017-08-21T13:36:15.368Z,572
2017-08-21T13:37:15.129Z,500
2017-08-21T13:38:15.171Z,480
2017-08-21T13:39:15.532Z,828
2017-08-21T13:40:15.599Z,984
2017-08-21T13:41:15.652Z,1020
2017-08-21T13:42:15.400Z,1380
2017-08-21T13:43:15.464Z,1020
2017-08-21T13:44:15.513Z,1220
2017-08-21T13:45:15.934Z,1036
2017-08-21T13:46:16.024Z,1160
2017-08-21T13:47:15.991Z,1196
2017-08-21T13:48:16.077Z,1036
2017-08-21T13:49:15.791Z,1004
2017-08-21T13:50:16.157Z,932
2017-08-21T13:51:15.900Z,1084
2017-08-21T13:52:16.260Z,996
2017-08-21T13:53:16.333Z,996
2017-08-21T13:54:16.072Z,1008
2017-08-21T13:55:16.132Z,924
2017-08-21T13:56:16.487Z,896
2017-08-21T13:57:16.549Z,900
2017-08-21T13:58:16.606Z,904
2017-08-21T13:59:16.353Z,900
2017-08-21T14:00:16.401Z,880
2017-08-21T14:01:16.467Z,872
2017-08-21T14:02:16.836Z,872